sensor_id;sensor_type;location;lat;lon;timestamp;P1;durP1;ratioP1;P2;durP2;ratioP2
78840;SDS011;68379;47.190;27.558;2023-04-03T00:01:07;5.90;;;3.20;;
78840;SDS011;68379;47.190;27.558;2023-04-03T00:03:39;7.10;;;4.00;;
78840;SDS011;68379;47.190;27.558;2023-04-03T00:06:11;6.70;;;3.80;;
78840;SDS011;68379;47.190;27.558;2023-04-03T00:08:43;5.50;;;3.30;;
78840;SDS011;68379;47.190;27.558;2023-04-03T00:11:15;7.70;;;4.20;;
78840;SDS011;68379;47.190;27.558;2023-04-03T00:13:47;6.40;;;3.90;;
78840;SDS011;68379;47.190;27.558;2023-04-03T00:16:18;6.90;;;4.10;;
78840;SDS011;68379;47.190;27.558;2023-04-03T00:18:50;6.30;;;3.80;;
78840;SDS011;68379;47.190;27.558;2023-04-03T00:21:22;5.80;;;3.50;;
78840;SDS011;68379;47.190;27.558;2023-04-03T00:23:54;7.10;;;4.00;;
78840;SDS011;68379;47.190;27.558;2023-04-03T00:26:26;5.60;;;3.30;;
78840;SDS011;68379;47.190;27.558;2023-04-03T00:28:57;5.00;;;3.50;;
78840;SDS011;68379;47.190;27.558;2023-04-03T00:31:29;5.60;;;3.80;;
78840;SDS011;68379;47.190;27.558;2023-04-03T00:34:01;5.80;;;2.80;;
78840;SDS011;68379;47.190;27.558;2023-04-03T00:36:33;5.70;;;3.80;;
78840;SDS011;68379;47.190;27.558;2023-04-03T00:39:05;5.40;;;3.40;;
78840;SDS011;68379;47.190;27.558;2023-04-03T00:41:36;5.90;;;3.30;;
78840;SDS011;68379;47.190;27.558;2023-04-03T00:47:08;6.00;;;3.40;;
78840;SDS011;68379;47.190;27.558;2023-04-03T00:49:41;5.50;;;3.40;;
78840;SDS011;68379;47.190;27.558;2023-04-03T00:52:15;6.30;;;3.50;;
78840;SDS011;68379;47.190;27.558;2023-04-03T00:54:51;4.80;;;3.50;;
78840;SDS011;68379;47.190;27.558;2023-04-03T00:57:27;6.00;;;3.50;;
78840;SDS011;68379;47.190;27.558;2023-04-03T01:00:02;5.90;;;3.20;;
78840;SDS011;68379;47.190;27.558;2023-04-03T01:02:37;6.70;;;3.20;;
78840;SDS011;68379;47.190;27.558;2023-04-03T01:05:09;4.40;;;3.20;;
78840;SDS011;68379;47.190;27.558;2023-04-03T01:07:42;5.30;;;3.10;;
78840;SDS011;68379;47.190;27.558;2023-04-03T01:10:15;5.20;;;3.40;;
78840;SDS011;68379;47.190;27.558;2023-04-03T01:15:21;4.60;;;2.70;;
78840;SDS011;68379;47.190;27.558;2023-04-03T01:17:54;4.90;;;2.80;;
78840;SDS011;68379;47.190;27.558;2023-04-03T01:23:43;5.60;;;3.50;;
78840;SDS011;68379;47.190;27.558;2023-04-03T01:26:21;6.50;;;4.20;;
78840;SDS011;68379;47.190;27.558;2023-04-03T01:28:54;4.20;;;2.70;;
78840;SDS011;68379;47.190;27.558;2023-04-03T01:31:29;7.00;;;4.50;;
78840;SDS011;68379;47.190;27.558;2023-04-03T01:34:11;6.90;;;3.60;;
78840;SDS011;68379;47.190;27.558;2023-04-03T01:36:43;6.60;;;3.60;;
78840;SDS011;68379;47.190;27.558;2023-04-03T01:39:14;6.40;;;4.30;;
78840;SDS011;68379;47.190;27.558;2023-04-03T01:41:46;5.20;;;3.00;;
78840;SDS011;68379;47.190;27.558;2023-04-03T01:44:18;8.20;;;4.60;;
78840;SDS011;68379;47.190;27.558;2023-04-03T01:46:50;6.50;;;3.90;;
78840;SDS011;68379;47.190;27.558;2023-04-03T01:49:22;6.30;;;4.00;;
78840;SDS011;68379;47.190;27.558;2023-04-03T01:51:54;6.80;;;4.10;;
78840;SDS011;68379;47.190;27.558;2023-04-03T01:54:26;6.10;;;3.40;;
78840;SDS011;68379;47.190;27.558;2023-04-03T01:56:57;5.20;;;3.50;;
78840;SDS011;68379;47.190;27.558;2023-04-03T01:59:29;4.90;;;3.50;;
78840;SDS011;68379;47.190;27.558;2023-04-03T02:02:01;5.50;;;3.30;;
78840;SDS011;68379;47.190;27.558;2023-04-03T02:04:33;6.40;;;3.30;;
78840;SDS011;68379;47.190;27.558;2023-04-03T02:07:05;5.40;;;3.40;;
78840;SDS011;68379;47.190;27.558;2023-04-03T02:09:37;5.40;;;3.30;;
78840;SDS011;68379;47.190;27.558;2023-04-03T02:12:08;6.40;;;4.50;;
78840;SDS011;68379;47.190;27.558;2023-04-03T02:14:40;6.80;;;3.60;;
78840;SDS011;68379;47.190;27.558;2023-04-03T02:17:12;5.40;;;3.20;;
78840;SDS011;68379;47.190;27.558;2023-04-03T02:19:44;5.90;;;2.60;;
78840;SDS011;68379;47.190;27.558;2023-04-03T02:22:16;7.30;;;3.40;;
78840;SDS011;68379;47.190;27.558;2023-04-03T02:24:48;4.20;;;2.50;;
78840;SDS011;68379;47.190;27.558;2023-04-03T02:27:20;5.60;;;3.80;;
78840;SDS011;68379;47.190;27.558;2023-04-03T02:29:51;6.10;;;3.30;;
78840;SDS011;68379;47.190;27.558;2023-04-03T02:32:23;7.10;;;3.90;;
78840;SDS011;68379;47.190;27.558;2023-04-03T02:34:55;7.00;;;3.90;;
78840;SDS011;68379;47.190;27.558;2023-04-03T02:37:27;5.90;;;3.70;;
78840;SDS011;68379;47.190;27.558;2023-04-03T02:39:58;6.60;;;3.70;;
78840;SDS011;68379;47.190;27.558;2023-04-03T02:42:30;5.80;;;3.40;;
78840;SDS011;68379;47.190;27.558;2023-04-03T02:45:02;4.20;;;2.50;;
78840;SDS011;68379;47.190;27.558;2023-04-03T02:47:35;4.60;;;3.00;;
78840;SDS011;68379;47.190;27.558;2023-04-03T02:50:07;3.40;;;2.00;;
78840;SDS011;68379;47.190;27.558;2023-04-03T02:52:39;5.50;;;2.90;;
78840;SDS011;68379;47.190;27.558;2023-04-03T02:55:12;6.10;;;2.50;;
78840;SDS011;68379;47.190;27.558;2023-04-03T02:57:45;4.80;;;2.50;;
78840;SDS011;68379;47.190;27.558;2023-04-03T03:00:17;3.20;;;1.50;;
78840;SDS011;68379;47.190;27.558;2023-04-03T03:02:49;3.70;;;2.00;;
78840;SDS011;68379;47.190;27.558;2023-04-03T03:05:22;3.80;;;2.10;;
78840;SDS011;68379;47.190;27.558;2023-04-03T03:07:53;5.30;;;2.80;;
78840;SDS011;68379;47.190;27.558;2023-04-03T03:10:25;5.00;;;2.60;;
78840;SDS011;68379;47.190;27.558;2023-04-03T03:12:57;7.60;;;3.40;;
78840;SDS011;68379;47.190;27.558;2023-04-03T03:15:29;4.50;;;2.50;;
78840;SDS011;68379;47.190;27.558;2023-04-03T03:18:01;5.80;;;3.50;;
78840;SDS011;68379;47.190;27.558;2023-04-03T03:20:32;5.80;;;2.90;;
78840;SDS011;68379;47.190;27.558;2023-04-03T03:23:04;6.20;;;3.30;;
78840;SDS011;68379;47.190;27.558;2023-04-03T03:25:39;10.80;;;5.70;;
78840;SDS011;68379;47.190;27.558;2023-04-03T03:28:11;13.50;;;6.60;;
78840;SDS011;68379;47.190;27.558;2023-04-03T03:30:43;12.20;;;6.60;;
78840;SDS011;68379;47.190;27.558;2023-04-03T03:33:15;13.10;;;6.20;;
78840;SDS011;68379;47.190;27.558;2023-04-03T03:35:47;12.40;;;6.60;;
78840;SDS011;68379;47.190;27.558;2023-04-03T03:38:18;12.20;;;6.20;;
78840;SDS011;68379;47.190;27.558;2023-04-03T03:40:50;13.50;;;7.60;;
78840;SDS011;68379;47.190;27.558;2023-04-03T03:43:22;11.90;;;6.10;;
78840;SDS011;68379;47.190;27.558;2023-04-03T03:45:54;13.80;;;7.60;;
78840;SDS011;68379;47.190;27.558;2023-04-03T03:48:26;14.70;;;8.20;;
78840;SDS011;68379;47.190;27.558;2023-04-03T03:50:57;15.70;;;7.00;;
78840;SDS011;68379;47.190;27.558;2023-04-03T03:53:29;18.00;;;9.50;;
78840;SDS011;68379;47.190;27.558;2023-04-03T03:56:01;18.00;;;8.90;;
78840;SDS011;68379;47.190;27.558;2023-04-03T03:58:34;20.00;;;10.40;;
78840;SDS011;68379;47.190;27.558;2023-04-03T04:01:06;18.30;;;10.60;;
78840;SDS011;68379;47.190;27.558;2023-04-03T04:03:38;17.40;;;8.90;;
78840;SDS011;68379;47.190;27.558;2023-04-03T04:06:10;16.00;;;8.40;;
78840;SDS011;68379;47.190;27.558;2023-04-03T04:08:42;18.40;;;9.90;;
78840;SDS011;68379;47.190;27.558;2023-04-03T04:11:14;19.00;;;8.90;;
78840;SDS011;68379;47.190;27.558;2023-04-03T04:13:47;19.80;;;9.60;;
78840;SDS011;68379;47.190;27.558;2023-04-03T04:16:19;17.50;;;10.00;;
78840;SDS011;68379;47.190;27.558;2023-04-03T04:18:51;18.00;;;9.60;;
78840;SDS011;68379;47.190;27.558;2023-04-03T04:21:23;12.60;;;7.30;;
78840;SDS011;68379;47.190;27.558;2023-04-03T04:23:55;18.70;;;8.10;;
78840;SDS011;68379;47.190;27.558;2023-04-03T04:28:59;16.90;;;8.80;;
78840;SDS011;68379;47.190;27.558;2023-04-03T04:31:32;16.20;;;9.00;;
78840;SDS011;68379;47.190;27.558;2023-04-03T04:34:04;14.90;;;8.30;;
78840;SDS011;68379;47.190;27.558;2023-04-03T04:36:36;11.90;;;6.50;;
78840;SDS011;68379;47.190;27.558;2023-04-03T04:39:08;13.30;;;7.20;;
78840;SDS011;68379;47.190;27.558;2023-04-03T04:41:40;11.00;;;5.70;;
78840;SDS011;68379;47.190;27.558;2023-04-03T04:44:12;14.50;;;7.10;;
78840;SDS011;68379;47.190;27.558;2023-04-03T04:46:44;12.60;;;6.40;;
78840;SDS011;68379;47.190;27.558;2023-04-03T04:49:16;11.70;;;6.70;;
78840;SDS011;68379;47.190;27.558;2023-04-03T04:51:48;10.50;;;6.30;;
78840;SDS011;68379;47.190;27.558;2023-04-03T04:54:20;13.00;;;6.40;;
78840;SDS011;68379;47.190;27.558;2023-04-03T04:56:51;13.80;;;7.30;;
78840;SDS011;68379;47.190;27.558;2023-04-03T04:59:24;11.60;;;7.30;;
78840;SDS011;68379;47.190;27.558;2023-04-03T05:01:56;14.40;;;7.10;;
78840;SDS011;68379;47.190;27.558;2023-04-03T05:04:28;11.10;;;5.40;;
78840;SDS011;68379;47.190;27.558;2023-04-03T05:07:00;12.10;;;6.40;;
78840;SDS011;68379;47.190;27.558;2023-04-03T05:09:32;12.00;;;6.60;;
78840;SDS011;68379;47.190;27.558;2023-04-03T05:12:04;12.60;;;6.20;;
78840;SDS011;68379;47.190;27.558;2023-04-03T05:14:36;10.70;;;5.90;;
78840;SDS011;68379;47.190;27.558;2023-04-03T05:17:07;13.40;;;6.50;;
78840;SDS011;68379;47.190;27.558;2023-04-03T05:19:39;12.00;;;7.00;;
78840;SDS011;68379;47.190;27.558;2023-04-03T05:22:11;13.20;;;6.70;;
78840;SDS011;68379;47.190;27.558;2023-04-03T05:24:43;15.40;;;7.10;;
78840;SDS011;68379;47.190;27.558;2023-04-03T05:27:15;12.30;;;7.10;;
78840;SDS011;68379;47.190;27.558;2023-04-03T05:29:47;12.10;;;7.80;;
78840;SDS011;68379;47.190;27.558;2023-04-03T05:32:19;14.50;;;6.70;;
78840;SDS011;68379;47.190;27.558;2023-04-03T05:34:52;13.20;;;6.10;;
78840;SDS011;68379;47.190;27.558;2023-04-03T05:37:24;11.70;;;5.60;;
78840;SDS011;68379;47.190;27.558;2023-04-03T05:39:56;13.40;;;8.10;;
78840;SDS011;68379;47.190;27.558;2023-04-03T05:42:28;13.20;;;7.70;;
78840;SDS011;68379;47.190;27.558;2023-04-03T05:45:00;11.70;;;7.30;;
78840;SDS011;68379;47.190;27.558;2023-04-03T05:47:32;11.80;;;7.00;;
78840;SDS011;68379;47.190;27.558;2023-04-03T05:50:05;13.90;;;7.80;;
78840;SDS011;68379;47.190;27.558;2023-04-03T05:52:38;12.30;;;6.10;;
78840;SDS011;68379;47.190;27.558;2023-04-03T05:55:15;13.20;;;7.30;;
78840;SDS011;68379;47.190;27.558;2023-04-03T05:57:47;10.40;;;6.60;;
78840;SDS011;68379;47.190;27.558;2023-04-03T06:00:20;12.90;;;6.90;;
78840;SDS011;68379;47.190;27.558;2023-04-03T06:02:52;13.10;;;6.00;;
78840;SDS011;68379;47.190;27.558;2023-04-03T06:05:24;11.40;;;6.00;;
78840;SDS011;68379;47.190;27.558;2023-04-03T06:07:56;11.60;;;6.40;;
78840;SDS011;68379;47.190;27.558;2023-04-03T06:10:28;10.20;;;5.80;;
78840;SDS011;68379;47.190;27.558;2023-04-03T06:13:00;9.30;;;4.50;;
78840;SDS011;68379;47.190;27.558;2023-04-03T06:15:32;7.70;;;4.10;;
78840;SDS011;68379;47.190;27.558;2023-04-03T06:18:05;6.10;;;3.30;;
78840;SDS011;68379;47.190;27.558;2023-04-03T06:20:37;5.60;;;3.20;;
78840;SDS011;68379;47.190;27.558;2023-04-03T06:23:08;6.20;;;3.60;;
78840;SDS011;68379;47.190;27.558;2023-04-03T06:25:40;5.60;;;3.60;;
78840;SDS011;68379;47.190;27.558;2023-04-03T06:28:12;5.30;;;3.40;;
78840;SDS011;68379;47.190;27.558;2023-04-03T06:30:44;6.10;;;3.40;;
78840;SDS011;68379;47.190;27.558;2023-04-03T06:33:16;6.20;;;3.20;;
78840;SDS011;68379;47.190;27.558;2023-04-03T06:35:48;5.90;;;3.30;;
78840;SDS011;68379;47.190;27.558;2023-04-03T06:38:25;5.20;;;3.40;;
78840;SDS011;68379;47.190;27.558;2023-04-03T06:40:58;4.80;;;2.90;;
78840;SDS011;68379;47.190;27.558;2023-04-03T06:43:30;4.30;;;2.70;;
78840;SDS011;68379;47.190;27.558;2023-04-03T06:46:02;5.00;;;2.70;;
78840;SDS011;68379;47.190;27.558;2023-04-03T06:48:34;4.50;;;2.40;;
78840;SDS011;68379;47.190;27.558;2023-04-03T06:51:07;4.40;;;2.20;;
78840;SDS011;68379;47.190;27.558;2023-04-03T06:53:44;6.00;;;2.30;;
78840;SDS011;68379;47.190;27.558;2023-04-03T06:56:16;5.00;;;3.20;;
78840;SDS011;68379;47.190;27.558;2023-04-03T06:58:48;4.50;;;2.70;;
78840;SDS011;68379;47.190;27.558;2023-04-03T07:01:23;4.30;;;2.00;;
78840;SDS011;68379;47.190;27.558;2023-04-03T07:03:56;6.90;;;2.10;;
78840;SDS011;68379;47.190;27.558;2023-04-03T07:06:28;5.10;;;2.30;;
78840;SDS011;68379;47.190;27.558;2023-04-03T07:09:02;3.70;;;2.30;;
78840;SDS011;68379;47.190;27.558;2023-04-03T07:11:35;4.30;;;2.30;;
78840;SDS011;68379;47.190;27.558;2023-04-03T07:14:07;4.40;;;2.40;;
78840;SDS011;68379;47.190;27.558;2023-04-03T07:16:39;3.10;;;2.10;;
78840;SDS011;68379;47.190;27.558;2023-04-03T07:19:11;3.40;;;1.90;;
78840;SDS011;68379;47.190;27.558;2023-04-03T07:21:43;3.60;;;2.20;;
78840;SDS011;68379;47.190;27.558;2023-04-03T07:24:15;7.00;;;2.40;;
78840;SDS011;68379;47.190;27.558;2023-04-03T07:26:50;3.60;;;2.50;;
78840;SDS011;68379;47.190;27.558;2023-04-03T07:29:22;2.70;;;1.80;;
78840;SDS011;68379;47.190;27.558;2023-04-03T07:31:54;3.80;;;2.50;;
78840;SDS011;68379;47.190;27.558;2023-04-03T07:34:26;4.00;;;2.20;;
78840;SDS011;68379;47.190;27.558;2023-04-03T07:36:58;3.60;;;2.40;;
78840;SDS011;68379;47.190;27.558;2023-04-03T07:39:31;4.50;;;2.60;;
78840;SDS011;68379;47.190;27.558;2023-04-03T07:42:03;3.70;;;2.30;;
78840;SDS011;68379;47.190;27.558;2023-04-03T07:44:35;3.60;;;2.10;;
78840;SDS011;68379;47.190;27.558;2023-04-03T07:47:07;3.00;;;2.00;;
78840;SDS011;68379;47.190;27.558;2023-04-03T07:49:39;3.70;;;2.10;;
78840;SDS011;68379;47.190;27.558;2023-04-03T07:52:11;3.50;;;1.80;;
78840;SDS011;68379;47.190;27.558;2023-04-03T07:54:43;4.40;;;1.80;;
78840;SDS011;68379;47.190;27.558;2023-04-03T07:57:15;4.80;;;2.40;;
78840;SDS011;68379;47.190;27.558;2023-04-03T07:59:47;4.50;;;2.20;;
78840;SDS011;68379;47.190;27.558;2023-04-03T08:02:19;3.30;;;2.50;;
78840;SDS011;68379;47.190;27.558;2023-04-03T08:04:51;2.70;;;1.80;;
78840;SDS011;68379;47.190;27.558;2023-04-03T08:07:23;3.20;;;1.80;;
78840;SDS011;68379;47.190;27.558;2023-04-03T08:09:55;4.60;;;2.40;;
78840;SDS011;68379;47.190;27.558;2023-04-03T08:12:27;3.30;;;1.60;;
78840;SDS011;68379;47.190;27.558;2023-04-03T08:15:00;2.90;;;1.70;;
78840;SDS011;68379;47.190;27.558;2023-04-03T08:17:33;3.00;;;1.60;;
78840;SDS011;68379;47.190;27.558;2023-04-03T08:20:06;3.30;;;1.90;;
78840;SDS011;68379;47.190;27.558;2023-04-03T08:22:40;2.90;;;1.60;;
78840;SDS011;68379;47.190;27.558;2023-04-03T08:25:12;2.60;;;1.70;;
78840;SDS011;68379;47.190;27.558;2023-04-03T08:30:16;2.30;;;1.20;;
78840;SDS011;68379;47.190;27.558;2023-04-03T08:32:48;2.00;;;1.10;;
78840;SDS011;68379;47.190;27.558;2023-04-03T08:35:20;1.90;;;1.60;;
78840;SDS011;68379;47.190;27.558;2023-04-03T08:37:53;2.50;;;1.40;;
78840;SDS011;68379;47.190;27.558;2023-04-03T08:40:24;2.20;;;1.50;;
78840;SDS011;68379;47.190;27.558;2023-04-03T08:43:00;2.10;;;1.20;;
78840;SDS011;68379;47.190;27.558;2023-04-03T08:45:50;1.70;;;1.30;;
78840;SDS011;68379;47.190;27.558;2023-04-03T08:48:26;2.30;;;1.60;;
78840;SDS011;68379;47.190;27.558;2023-04-03T08:51:04;2.00;;;1.30;;
78840;SDS011;68379;47.190;27.558;2023-04-03T08:53:45;5.10;;;1.60;;
78840;SDS011;68379;47.190;27.558;2023-04-03T08:56:26;2.40;;;1.50;;
78840;SDS011;68379;47.190;27.558;2023-04-03T08:58:59;3.10;;;2.00;;
78840;SDS011;68379;47.190;27.558;2023-04-03T09:01:36;4.10;;;1.60;;
78840;SDS011;68379;47.190;27.558;2023-04-03T09:04:10;2.50;;;1.60;;
78840;SDS011;68379;47.190;27.558;2023-04-03T09:06:45;2.10;;;1.60;;
78840;SDS011;68379;47.190;27.558;2023-04-03T09:09:24;2.80;;;1.70;;
78840;SDS011;68379;47.190;27.558;2023-04-03T09:12:06;2.10;;;1.70;;
78840;SDS011;68379;47.190;27.558;2023-04-03T09:14:49;4.80;;;2.00;;
78840;SDS011;68379;47.190;27.558;2023-04-03T09:17:38;2.80;;;1.90;;
78840;SDS011;68379;47.190;27.558;2023-04-03T09:20:21;2.20;;;1.30;;
78840;SDS011;68379;47.190;27.558;2023-04-03T09:23:00;2.40;;;1.40;;
78840;SDS011;68379;47.190;27.558;2023-04-03T09:25:36;1.60;;;1.00;;
78840;SDS011;68379;47.190;27.558;2023-04-03T09:28:08;1.80;;;1.10;;
78840;SDS011;68379;47.190;27.558;2023-04-03T09:30:40;3.80;;;1.10;;
78840;SDS011;68379;47.190;27.558;2023-04-03T09:33:12;1.20;;;0.70;;
78840;SDS011;68379;47.190;27.558;2023-04-03T09:35:46;1.60;;;1.10;;
78840;SDS011;68379;47.190;27.558;2023-04-03T09:38:20;1.60;;;1.00;;
78840;SDS011;68379;47.190;27.558;2023-04-03T09:41:04;1.90;;;1.10;;
78840;SDS011;68379;47.190;27.558;2023-04-03T09:43:51;1.80;;;1.00;;
78840;SDS011;68379;47.190;27.558;2023-04-03T09:46:28;1.30;;;0.80;;
78840;SDS011;68379;47.190;27.558;2023-04-03T09:49:02;2.80;;;0.90;;
78840;SDS011;68379;47.190;27.558;2023-04-03T09:54:24;1.00;;;0.50;;
78840;SDS011;68379;47.190;27.558;2023-04-03T09:59:43;0.70;;;0.40;;
78840;SDS011;68379;47.190;27.558;2023-04-03T10:02:30;1.10;;;0.60;;
78840;SDS011;68379;47.190;27.558;2023-04-03T10:05:23;1.00;;;0.50;;
78840;SDS011;68379;47.190;27.558;2023-04-03T10:08:08;0.80;;;0.40;;
78840;SDS011;68379;47.190;27.558;2023-04-03T10:11:06;0.90;;;0.30;;
78840;SDS011;68379;47.190;27.558;2023-04-03T10:13:55;0.80;;;0.40;;
78840;SDS011;68379;47.190;27.558;2023-04-03T10:16:32;0.90;;;0.50;;
78840;SDS011;68379;47.190;27.558;2023-04-03T10:19:18;1.70;;;0.40;;
78840;SDS011;68379;47.190;27.558;2023-04-03T10:22:03;1.00;;;0.60;;
78840;SDS011;68379;47.190;27.558;2023-04-03T10:24:47;1.50;;;0.60;;
78840;SDS011;68379;47.190;27.558;2023-04-03T10:27:25;0.80;;;0.40;;
78840;SDS011;68379;47.190;27.558;2023-04-03T10:30:12;1.10;;;0.30;;
78840;SDS011;68379;47.190;27.558;2023-04-03T10:33:01;0.60;;;0.30;;
78840;SDS011;68379;47.190;27.558;2023-04-03T10:35:48;1.60;;;0.50;;
78840;SDS011;68379;47.190;27.558;2023-04-03T10:38:33;1.20;;;0.70;;
78840;SDS011;68379;47.190;27.558;2023-04-03T10:41:20;0.90;;;0.60;;
78840;SDS011;68379;47.190;27.558;2023-04-03T10:44:02;1.10;;;0.40;;
78840;SDS011;68379;47.190;27.558;2023-04-03T10:46:44;1.00;;;0.60;;
78840;SDS011;68379;47.190;27.558;2023-04-03T10:49:31;1.30;;;0.70;;
78840;SDS011;68379;47.190;27.558;2023-04-03T10:52:17;1.00;;;0.60;;
78840;SDS011;68379;47.190;27.558;2023-04-03T10:54:56;0.90;;;0.40;;
78840;SDS011;68379;47.190;27.558;2023-04-03T10:57:32;0.70;;;0.40;;
78840;SDS011;68379;47.190;27.558;2023-04-03T11:00:05;1.10;;;0.70;;
78840;SDS011;68379;47.190;27.558;2023-04-03T11:02:48;0.80;;;0.30;;
78840;SDS011;68379;47.190;27.558;2023-04-03T11:05:29;1.40;;;0.80;;
78840;SDS011;68379;47.190;27.558;2023-04-03T11:08:07;1.00;;;0.60;;
78840;SDS011;68379;47.190;27.558;2023-04-03T11:10:51;1.40;;;0.60;;
78840;SDS011;68379;47.190;27.558;2023-04-03T11:13:29;1.60;;;0.50;;
78840;SDS011;68379;47.190;27.558;2023-04-03T11:16:06;1.60;;;0.70;;
78840;SDS011;68379;47.190;27.558;2023-04-03T11:18:45;1.10;;;0.50;;
78840;SDS011;68379;47.190;27.558;2023-04-03T11:21:22;4.30;;;0.80;;
78840;SDS011;68379;47.190;27.558;2023-04-03T11:23:59;2.00;;;0.60;;
78840;SDS011;68379;47.190;27.558;2023-04-03T11:26:37;1.50;;;0.70;;
78840;SDS011;68379;47.190;27.558;2023-04-03T11:29:13;1.40;;;0.70;;
78840;SDS011;68379;47.190;27.558;2023-04-03T11:31:56;1.30;;;0.80;;
78840;SDS011;68379;47.190;27.558;2023-04-03T11:34:39;1.30;;;0.70;;
78840;SDS011;68379;47.190;27.558;2023-04-03T11:37:15;1.30;;;0.80;;
78840;SDS011;68379;47.190;27.558;2023-04-03T11:39:54;2.60;;;1.40;;
78840;SDS011;68379;47.190;27.558;2023-04-03T11:42:32;2.40;;;1.70;;
78840;SDS011;68379;47.190;27.558;2023-04-03T11:45:22;2.30;;;1.40;;
78840;SDS011;68379;47.190;27.558;2023-04-03T11:48:00;3.30;;;1.60;;
78840;SDS011;68379;47.190;27.558;2023-04-03T11:50:44;2.80;;;2.00;;
78840;SDS011;68379;47.190;27.558;2023-04-03T11:56:26;2.70;;;1.40;;
78840;SDS011;68379;47.190;27.558;2023-04-03T11:59:21;2.40;;;1.60;;
78840;SDS011;68379;47.190;27.558;2023-04-03T12:01:56;3.00;;;1.80;;
78840;SDS011;68379;47.190;27.558;2023-04-03T12:04:28;2.50;;;1.40;;
78840;SDS011;68379;47.190;27.558;2023-04-03T12:12:59;2.30;;;1.50;;
78840;SDS011;68379;47.190;27.558;2023-04-03T12:15:49;2.50;;;2.00;;
78840;SDS011;68379;47.190;27.558;2023-04-03T12:24:45;2.30;;;1.70;;
78840;SDS011;68379;47.190;27.558;2023-04-03T12:27:25;2.60;;;1.60;;
78840;SDS011;68379;47.190;27.558;2023-04-03T12:30:12;3.00;;;1.70;;
78840;SDS011;68379;47.190;27.558;2023-04-03T12:35:51;2.90;;;1.70;;
78840;SDS011;68379;47.190;27.558;2023-04-03T12:41:30;3.80;;;2.30;;
78840;SDS011;68379;47.190;27.558;2023-04-03T12:44:20;3.40;;;2.00;;
78840;SDS011;68379;47.190;27.558;2023-04-03T12:47:24;3.40;;;2.40;;
78840;SDS011;68379;47.190;27.558;2023-04-03T12:50:01;3.40;;;2.10;;
78840;SDS011;68379;47.190;27.558;2023-04-03T12:52:37;3.60;;;1.90;;
78840;SDS011;68379;47.190;27.558;2023-04-03T12:55:17;2.90;;;1.50;;
78840;SDS011;68379;47.190;27.558;2023-04-03T12:57:50;3.00;;;1.90;;
78840;SDS011;68379;47.190;27.558;2023-04-03T13:00:26;1.80;;;1.20;;
78840;SDS011;68379;47.190;27.558;2023-04-03T13:05:33;1.70;;;0.90;;
78840;SDS011;68379;47.190;27.558;2023-04-03T13:08:08;2.10;;;1.30;;
78840;SDS011;68379;47.190;27.558;2023-04-03T13:10:54;2.10;;;1.30;;
78840;SDS011;68379;47.190;27.558;2023-04-03T13:13:28;2.20;;;1.50;;
78840;SDS011;68379;47.190;27.558;2023-04-03T13:16:01;2.80;;;1.50;;
78840;SDS011;68379;47.190;27.558;2023-04-03T13:18:41;2.80;;;1.40;;
78840;SDS011;68379;47.190;27.558;2023-04-03T13:21:20;2.00;;;1.40;;
78840;SDS011;68379;47.190;27.558;2023-04-03T13:23:56;2.50;;;1.40;;
78840;SDS011;68379;47.190;27.558;2023-04-03T13:26:30;1.70;;;1.10;;
78840;SDS011;68379;47.190;27.558;2023-04-03T13:29:05;2.50;;;0.80;;
78840;SDS011;68379;47.190;27.558;2023-04-03T13:31:58;2.30;;;0.90;;
78840;SDS011;68379;47.190;27.558;2023-04-03T13:34:37;1.50;;;0.80;;
78840;SDS011;68379;47.190;27.558;2023-04-03T13:37:20;2.00;;;1.00;;
78840;SDS011;68379;47.190;27.558;2023-04-03T13:39:59;1.70;;;0.90;;
78840;SDS011;68379;47.190;27.558;2023-04-03T13:42:40;1.20;;;0.70;;
78840;SDS011;68379;47.190;27.558;2023-04-03T13:45:18;2.00;;;1.00;;
78840;SDS011;68379;47.190;27.558;2023-04-03T13:47:52;2.80;;;0.80;;
78840;SDS011;68379;47.190;27.558;2023-04-03T13:53:26;1.40;;;0.80;;
78840;SDS011;68379;47.190;27.558;2023-04-03T13:56:04;1.90;;;0.90;;
78840;SDS011;68379;47.190;27.558;2023-04-03T14:01:14;1.60;;;0.90;;
78840;SDS011;68379;47.190;27.558;2023-04-03T14:03:53;1.90;;;0.90;;
78840;SDS011;68379;47.190;27.558;2023-04-03T14:06:26;1.50;;;1.00;;
78840;SDS011;68379;47.190;27.558;2023-04-03T14:08:58;1.40;;;0.90;;
78840;SDS011;68379;47.190;27.558;2023-04-03T14:11:31;1.80;;;1.00;;
78840;SDS011;68379;47.190;27.558;2023-04-03T14:14:06;1.30;;;0.70;;
78840;SDS011;68379;47.190;27.558;2023-04-03T14:16:43;1.50;;;0.90;;
78840;SDS011;68379;47.190;27.558;2023-04-03T14:19:18;2.00;;;0.80;;
78840;SDS011;68379;47.190;27.558;2023-04-03T14:21:54;2.40;;;1.10;;
78840;SDS011;68379;47.190;27.558;2023-04-03T14:26:56;1.70;;;0.80;;
78840;SDS011;68379;47.190;27.558;2023-04-03T14:29:28;1.60;;;1.20;;
78840;SDS011;68379;47.190;27.558;2023-04-03T14:32:00;1.50;;;0.70;;
78840;SDS011;68379;47.190;27.558;2023-04-03T14:34:32;1.90;;;0.80;;
78840;SDS011;68379;47.190;27.558;2023-04-03T14:37:05;1.70;;;0.80;;
78840;SDS011;68379;47.190;27.558;2023-04-03T14:39:44;1.20;;;0.90;;
78840;SDS011;68379;47.190;27.558;2023-04-03T14:42:18;1.30;;;0.60;;
78840;SDS011;68379;47.190;27.558;2023-04-03T14:44:52;1.30;;;0.80;;
78840;SDS011;68379;47.190;27.558;2023-04-03T14:47:25;1.60;;;0.90;;
78840;SDS011;68379;47.190;27.558;2023-04-03T14:49:59;1.50;;;0.80;;
78840;SDS011;68379;47.190;27.558;2023-04-03T14:52:33;1.50;;;0.90;;
78840;SDS011;68379;47.190;27.558;2023-04-03T14:55:05;2.50;;;1.00;;
78840;SDS011;68379;47.190;27.558;2023-04-03T14:57:38;2.30;;;1.20;;
78840;SDS011;68379;47.190;27.558;2023-04-03T15:00:13;1.40;;;0.90;;
78840;SDS011;68379;47.190;27.558;2023-04-03T15:02:46;1.70;;;1.00;;
78840;SDS011;68379;47.190;27.558;2023-04-03T15:05:18;1.40;;;0.80;;
78840;SDS011;68379;47.190;27.558;2023-04-03T15:07:52;2.20;;;1.00;;
78840;SDS011;68379;47.190;27.558;2023-04-03T15:10:26;2.00;;;0.90;;
78840;SDS011;68379;47.190;27.558;2023-04-03T15:15:29;1.30;;;0.70;;
78840;SDS011;68379;47.190;27.558;2023-04-03T15:18:03;2.00;;;1.00;;
78840;SDS011;68379;47.190;27.558;2023-04-03T15:20:35;1.40;;;1.00;;
78840;SDS011;68379;47.190;27.558;2023-04-03T15:23:08;1.20;;;0.60;;
78840;SDS011;68379;47.190;27.558;2023-04-03T15:25:43;1.50;;;0.70;;
78840;SDS011;68379;47.190;27.558;2023-04-03T15:28:18;1.40;;;0.80;;
78840;SDS011;68379;47.190;27.558;2023-04-03T15:30:52;1.80;;;0.80;;
78840;SDS011;68379;47.190;27.558;2023-04-03T15:33:24;1.80;;;1.10;;
78840;SDS011;68379;47.190;27.558;2023-04-03T15:35:57;1.80;;;0.70;;
78840;SDS011;68379;47.190;27.558;2023-04-03T15:38:29;3.30;;;1.00;;
78840;SDS011;68379;47.190;27.558;2023-04-03T15:41:01;1.50;;;0.70;;
78840;SDS011;68379;47.190;27.558;2023-04-03T15:43:33;1.60;;;0.90;;
78840;SDS011;68379;47.190;27.558;2023-04-03T15:46:05;1.50;;;1.00;;
78840;SDS011;68379;47.190;27.558;2023-04-03T15:48:37;1.70;;;0.80;;
78840;SDS011;68379;47.190;27.558;2023-04-03T15:51:09;1.30;;;0.80;;
78840;SDS011;68379;47.190;27.558;2023-04-03T15:53:41;1.50;;;0.80;;
78840;SDS011;68379;47.190;27.558;2023-04-03T15:56:13;1.30;;;0.70;;
78840;SDS011;68379;47.190;27.558;2023-04-03T15:58:45;1.30;;;0.80;;
78840;SDS011;68379;47.190;27.558;2023-04-03T16:01:17;0.90;;;0.60;;
78840;SDS011;68379;47.190;27.558;2023-04-03T16:03:50;1.40;;;0.70;;
78840;SDS011;68379;47.190;27.558;2023-04-03T16:06:21;0.90;;;0.50;;
78840;SDS011;68379;47.190;27.558;2023-04-03T16:08:57;0.70;;;0.40;;